Time;durP1;ratioP1;P1;durP2;ratioP2;P2;SDS_P1;SDS_P2;PMS_P1;PMS_P2;Temp;Humidity;BMP_temperature;BMP_pressure;BME280_temperature;BME280_humidity;BME280_pressure;Samples;Min_cycle;Max_cycle;Signal;HPM_P1;HPM_P2
2023/04/01 00:02:03;;;;;;;13.15;5.95;;;;;;;10.13;72.03;100084.94;4913453;29;20048;-89
2023/04/01 00:04:55;;;;;;;10.27;5.40;;;;;;;10.22;71.98;100088.47;4968845;29;20051;-89
2023/04/01 00:07:33;;;;;;;;;;;;;;;10.36;71.74;100111.13;4963613;28;20539;-87
2023/04/01 00:10:31;;;;;;;13.98;6.40;;;;;;;10.04;72.09;100067.19;4936435;29;19915;-90
2023/04/01 00:13:28;;;;;;;11.73;6.10;;;;;;;10.22;72.15;100082.25;4966318;28;20107;-87
2023/04/01 00:16:04;;;;;;;11.43;6.68;;;;;;;10.16;72.11;100065.00;4929687;29;20123;-87
2023/04/01 00:18:30;;;;;;;13.15;6.90;;;;;;;10.14;72.03;100085.81;4948479;29;20035;-88
2023/04/01 00:20:55;;;;;;;14.20;7.05;;;;;;;10.16;71.96;100083.81;4940454;29;20054;-89
2023/04/01 00:23:22;;;;;;;17.98;7.63;;;;;;;9.99;72.35;100057.97;4939709;29;20087;-87
2023/04/01 00:25:47;;;;;;;15.43;8.10;;;;;;;10.13;71.96;100076.06;4949082;29;20070;-86
2023/04/01 00:28:15;;;;;;;12.35;7.22;;;;;;;10.20;72.42;100100.41;4936604;29;20043;-86
2023/04/01 00:30:43;;;;;;;16.75;8.23;;;;;;;10.21;72.11;100081.44;4944137;28;20102;-86
2023/04/01 00:33:42;;;;;;;19.38;8.85;;;;;;;10.14;72.58;100096.56;4942330;29;21872;-87
2023/04/01 00:36:17;;;;;;;16.45;10.63;;;;;;;9.93;72.63;100046.91;4936381;29;20535;-90
2023/04/01 00:38:43;;;;;;;19.08;9.65;;;;;;;9.93;72.41;100052.28;4936616;29;20099;-89
2023/04/01 00:41:14;;;;;;;15.07;9.80;;;;;;;9.96;72.66;100052.97;4929949;29;20044;-90
2023/04/01 00:43:40;;;;;;;18.80;10.23;;;;;;;9.96;72.59;100045.72;4936741;29;20048;-87
2023/04/01 00:46:06;;;;;;;19.17;10.77;;;;;;;10.12;72.29;100072.53;4939377;29;20141;-89
2023/04/01 00:48:38;;;;;;;17.30;10.07;;;;;;;9.94;72.13;100037.84;4930304;29;20063;-88
2023/04/01 00:51:46;;;;;;;20.42;12.52;;;;;;;9.90;72.63;100039.22;4936611;29;20044;-88
2023/04/01 00:54:11;;;;;;;19.52;13.10;;;;;;;9.64;73.15;100027.84;4945752;29;20039;-87
2023/04/01 00:56:40;;;;;;;26.55;16.40;;;;;;;9.80;73.21;100054.66;4951654;29;20134;-89
2023/04/01 00:59:13;;;;;;;30.38;16.75;;;;;;;9.68;73.64;100042.59;4913799;29;20067;-88
2023/04/01 01:01:39;;;;;;;29.77;17.55;;;;;;;9.51;73.65;100039.13;4932291;29;20055;-86
2023/04/01 01:04:06;;;;;;;42.83;21.67;;;;;;;9.24;74.26;100034.91;4953160;29;20039;-89
2023/04/01 01:06:58;;;;;;;37.83;22.02;;;;;;;9.23;74.39;100043.97;4956245;29;20047;-88
2023/04/01 01:09:56;;;;;;;36.17;20.35;;;;;;;8.57;77.74;100059.94;4941876;29;20070;-87
2023/04/01 01:12:31;;;;;;;37.30;21.08;;;;;;;8.65;77.91;100078.72;4940964;29;20043;-86
2023/04/01 01:15:20;;;;;;;35.88;22.73;;;;;;;8.48;78.05;100065.44;4956526;29;20043;-87
2023/04/01 01:18:21;;;;;;;39.80;25.27;;;;;;;8.30;79.06;100060.97;4956204;29;20058;-87
2023/04/01 01:21:04;;;;;;;44.38;28.25;;;;;;;8.27;79.72;100081.91;4948797;29;20075;-88
2023/04/01 01:23:54;;;;;;;49.80;26.17;;;;;;;8.13;80.56;100084.16;4933157;29;20048;-88
2023/04/01 01:26:44;;;;;;;39.05;24.25;;;;;;;8.08;80.81;100078.47;4945401;29;20035;-87
2023/04/01 01:29:33;;;;;;;41.35;23.60;;;;;;;8.15;80.58;100066.09;4940664;29;20044;-87
2023/04/01 01:32:03;;;;;;;35.85;22.13;;;;;;;7.96;81.01;100058.28;4941541;29;20047;-90
2023/04/01 01:34:47;;;;;;;39.63;22.35;;;;;;;7.93;81.19;100040.72;4926718;29;20105;-89
2023/04/01 01:37:21;;;;;;;50.00;29.90;;;;;;;7.84;81.83;100047.00;4932058;29;20161;-88
2023/04/01 01:39:51;;;;;;;45.17;26.98;;;;;;;7.81;81.96;100050.84;4936785;29;20035;-87
2023/04/01 01:42:18;;;;;;;44.28;23.98;;;;;;;7.55;83.50;100047.34;4924688;29;20139;-89
2023/04/01 01:44:44;;;;;;;36.33;22.38;;;;;;;7.58;82.97;100039.00;4912369;29;20051;-88
2023/04/01 01:47:34;;;;;;;32.05;20.42;;;;;;;7.69;82.83;100044.09;4938435;29;20122;-85
2023/04/01 01:50:01;;;;;;;37.88;20.38;;;;;;;7.57;83.41;100040.00;4933230;29;20043;-86
2023/04/01 01:52:28;;;;;;;35.67;20.38;;;;;;;7.59;83.23;100038.00;4953647;29;20031;-89
2023/04/01 01:54:56;;;;;;;28.40;19.67;;;;;;;7.62;83.13;100043.03;4954840;29;20233;-89
2023/04/01 01:57:26;;;;;;;36.05;20.40;;;;;;;7.73;82.97;100053.47;4960248;29;20158;-87
2023/04/01 01:59:54;;;;;;;34.83;19.70;;;;;;;7.68;82.63;100041.56;4950636;29;20047;-87
2023/04/01 02:02:21;;;;;;;30.98;18.77;;;;;;;7.90;82.73;100070.47;4919606;29;20138;-87
2023/04/01 02:04:48;;;;;;;32.05;19.33;;;;;;;7.98;82.58;100067.00;4948972;29;20059;-86
2023/04/01 02:07:19;;;;;;;29.67;18.73;;;;;;;7.78;82.28;100031.59;4932535;29;20052;-88
2023/04/01 02:09:47;;;;;;;33.92;19.00;;;;;;;7.94;81.99;100041.56;4917548;29;20395;-87
2023/04/01 02:12:16;;;;;;;32.47;19.30;;;;;;;7.91;82.26;100047.22;4943870;29;20127;-88
2023/04/01 02:15:11;;;;;;;30.27;19.45;;;;;;;7.96;82.09;100045.75;4938756;29;20099;-88
2023/04/01 02:17:40;;;;;;;32.75;18.90;;;;;;;7.88;82.38;100039.53;4939187;29;20138;-88
2023/04/01 02:20:12;;;;;;;34.15;19.10;;;;;;;7.87;82.28;100024.47;4932033;29;20040;-87
2023/04/01 02:22:43;;;;;;;29.85;18.35;;;;;;;8.00;81.88;100030.22;4932467;29;20047;-88
2023/04/01 02:25:37;;;;;;;25.55;17.40;;;;;;;8.05;81.62;100022.53;4932479;29;20054;-88
2023/04/01 02:28:09;;;;;;;23.67;15.07;;;;;;;7.79;82.16;99993.97;4941141;29;20036;-87
2023/04/01 02:30:37;;;;;;;22.15;12.30;;;;;;;7.93;82.62;100013.94;4938662;29;20047;-89
2023/04/01 02:33:03;;;;;;;21.25;11.48;;;;;;;7.93;82.25;99997.88;4938178;29;20090;-88
2023/04/01 02:35:29;;;;;;;17.67;10.88;;;;;;;7.88;82.99;99989.50;4916431;29;20508;-86
2023/04/01 02:37:55;;;;;;;30.48;15.80;;;;;;;7.89;82.67;100011.75;4925494;29;20130;-88
2023/04/01 02:40:20;;;;;;;25.08;15.88;;;;;;;7.93;82.56;100013.94;4932385;29;20054;-87
2023/04/01 02:42:47;;;;;;;31.38;17.70;;;;;;;7.99;81.81;99985.72;4917029;29;20051;-87
2023/04/01 02:45:14;;;;;;;29.27;17.77;;;;;;;8.15;81.90;100019.75;4921546;29;20778;-87
2023/04/01 02:47:45;;;;;;;27.65;17.67;;;;;;;8.05;81.61;99995.75;4934772;29;20491;-87
2023/04/01 02:50:13;;;;;;;26.92;16.83;;;;;;;8.04;81.11;99972.69;4942014;29;20041;-88
2023/04/01 02:52:43;;;;;;;29.73;17.73;;;;;;;8.12;81.02;99987.94;4935885;29;20139;-86
2023/04/01 02:55:09;;;;;;;38.60;17.92;;;;;;;8.13;80.75;99969.03;4919160;29;20050;-86
2023/04/01 02:57:34;;;;;;;26.73;16.02;;;;;;;8.29;80.81;99978.97;4915483;29;20126;-88
2023/04/01 03:00:10;;;;;;;26.60;16.85;;;;;;;8.39;80.68;99990.38;4942717;29;20039;-87
2023/04/01 03:02:38;;;;;;;;;;;;;;;8.36;80.85;99988.03;4913766;28;20558;-88
2023/04/01 03:05:07;;;;;;;36.13;16.95;;;;;;;8.39;80.99;99982.34;4942010;28;20059;-89
2023/04/01 03:07:33;;;;;;;32.55;17.60;;;;;;;8.13;81.08;99944.94;4926948;29;20138;-87
2023/04/01 03:09:59;;;;;;;30.38;17.33;;;;;;;8.29;81.16;99956.69;4923258;29;20082;-89
2023/04/01 03:12:25;;;;;;;28.27;16.48;;;;;;;8.41;80.63;99963.47;4926318;29;20082;-90
2023/04/01 03:14:50;;;;;;;24.17;15.23;;;;;;;8.38;80.65;99947.66;4940704;29;20043;-88
2023/04/01 03:17:18;;;;;;;26.33;15.05;;;;;;;8.53;80.55;99964.00;4943132;29;20054;-88
2023/04/01 03:19:45;;;;;;;26.83;15.30;;;;;;;8.61;80.16;99964.81;4945632;29;20051;-90
2023/04/01 03:22:15;;;;;;;22.90;14.50;;;;;;;8.69;80.06;99965.88;4952843;28;20031;-89
2023/04/01 03:24:45;;;;;;;25.80;14.40;;;;;;;8.60;79.74;99952.44;4966340;29;20046;-88
2023/04/01 03:27:36;;;;;;;22.58;13.32;;;;;;;8.71;80.08;99970.06;4957209;29;20133;-88
2023/04/01 03:30:08;;;;;;;25.75;14.73;;;;;;;8.71;79.25;99945.94;4942815;29;20035;-88
2023/04/01 03:32:38;;;;;;;23.17;13.82;;;;;;;8.66;79.48;99943.75;4945809;29;20128;-87
2023/04/01 03:35:06;;;;;;;16.98;10.25;;;;;;;8.55;79.28;99944.06;4934144;29;20046;-86
2023/04/01 03:37:32;;;;;;;22.40;11.20;;;;;;;8.46;79.85;99926.28;4940762;29;20118;-88
2023/04/01 03:39:57;;;;;;;15.23;9.80;;;;;;;8.32;80.67;99925.06;4938580;29;20108;-87
2023/04/01 03:42:23;;;;;;;19.80;10.73;;;;;;;8.53;80.06;99945.22;4939007;29;20107;-89
2023/04/01 03:44:49;;;;;;;19.83;8.98;;;;;;;8.42;80.62;99949.88;4943867;29;20066;-90
2023/04/01 03:47:16;;;;;;;17.00;8.90;;;;;;;8.37;80.11;99925.41;4928980;29;20048;-89
2023/04/01 03:49:44;;;;;;;21.83;9.60;;;;;;;8.65;80.22;99971.53;4943396;29;20043;-87
2023/04/01 03:52:10;;;;;;;21.58;8.73;;;;;;;8.51;79.89;99955.28;4941348;28;20048;-88
2023/04/01 03:54:37;;;;;;;21.70;9.73;;;;;;;8.60;80.06;99963.16;4937194;29;20115;-88
2023/04/01 03:57:02;;;;;;;25.08;10.48;;;;;;;8.36;80.13;99922.91;4944979;29;20036;-88
2023/04/01 03:59:30;;;;;;;17.13;10.60;;;;;;;8.54;80.03;99961.13;4934726;29;20051;-88
2023/04/01 04:01:55;;;;;;;19.02;11.77;;;;;;;8.43;80.36;99945.38;4929750;29;20477;-89
2023/04/01 04:04:21;;;;;;;24.80;12.48;;;;;;;8.55;80.45;99992.28;4945271;29;20064;-87
2023/04/01 04:06:47;;;;;;;27.10;13.05;;;;;;;8.32;80.88;99945.66;4936462;29;20056;-88
2023/04/01 04:09:13;;;;;;;25.75;13.35;;;;;;;8.36;80.51;99944.34;4945169;29;20107;-88
2023/04/01 04:11:39;;;;;;;27.83;13.57;;;;;;;8.49;80.48;99955.44;4921807;29;20149;-88
2023/04/01 04:14:06;;;;;;;29.85;12.85;;;;;;;8.55;80.36;99954.78;4922056;29;20043;-88
2023/04/01 04:16:33;;;;;;;22.17;12.88;;;;;;;8.66;80.53;99962.50;4919985;29;20047;-89
2023/04/01 04:18:59;;;;;;;23.10;11.70;;;;;;;8.81;80.39;99969.88;4929503;29;20242;-88
2023/04/01 04:21:24;;;;;;;26.95;11.77;;;;;;;8.82;79.75;99963.50;4945820;29;20062;-88
2023/04/01 04:23:51;;;;;;;35.40;12.02;;;;;;;8.70;79.75;99935.38;4935609;29;20073;-88
2023/04/01 04:26:19;;;;;;;24.42;10.82;;;;;;;8.78;80.06;99946.06;4936549;29;20068;-88
2023/04/01 04:28:45;;;;;;;21.83;11.10;;;;;;;9.02;79.35;99972.91;4924253;29;20036;-87
2023/04/01 04:31:11;;;;;;;30.98;13.20;;;;;;;8.84;79.28;99938.22;4943713;29;20071;-88
2023/04/01 04:33:38;;;;;;;19.23;10.82;;;;;;;9.21;78.79;99965.53;4928311;29;20147;-87
2023/04/01 04:36:04;;;;;;;31.00;11.68;;;;;;;9.38;77.96;99964.47;4935973;29;20099;-88
2023/04/01 04:38:30;;;;;;;26.48;10.90;;;;;;;9.33;77.88;99941.88;4962701;28;20501;-87
2023/04/01 04:40:56;;;;;;;18.77;10.68;;;;;;;9.51;76.80;99942.50;4939409;29;20084;-91
2023/04/01 04:43:22;;;;;;;22.08;10.65;;;;;;;9.32;77.31;99927.63;4933293;29;20134;-86
2023/04/01 04:45:51;;;;;;;;;;;;;;;9.60;77.08;99960.28;4939665;29;20040;-87
2023/04/01 04:48:20;;;;;;;23.70;9.85;;;;;;;9.62;76.75;99935.91;4938500;29;19915;-86
2023/04/01 04:50:48;;;;;;;23.65;11.43;;;;;;;9.87;76.35;99961.69;4943638;28;20095;-88
2023/04/01 04:53:16;;;;;;;25.85;11.43;;;;;;;9.93;75.65;99936.81;4944808;29;20518;-87
2023/04/01 04:55:46;;;;;;;23.05;11.50;;;;;;;10.02;75.33;99915.28;4938878;29;20040;-89
2023/04/01 04:58:12;;;;;;;20.65;10.75;;;;;;;10.13;74.85;99920.28;4925149;29;20415;-88
2023/04/01 05:00:48;;;;;;;21.85;10.27;;;;;;;10.52;74.30;99948.97;4959487;29;20054;-90
2023/04/01 05:03:14;;;;;;;25.10;9.88;;;;;;;10.54;73.15;99928.13;4948473;29;20059;-89
2023/04/01 05:05:40;;;;;;;18.20;9.90;;;;;;;10.90;72.38;99946.34;4936914;29;20074;-87
2023/04/01 05:08:10;;;;;;;26.20;9.90;;;;;;;11.04;71.78;99936.66;4936031;29;20115;-87
2023/04/01 05:10:37;;;;;;;18.17;9.38;;;;;;;11.32;70.80;99953.03;4947031;29;20122;-86
2023/04/01 05:13:04;;;;;;;18.23;8.32;;;;;;;11.49;70.05;99946.47;4938292;29;20070;-87
2023/04/01 05:15:31;;;;;;;21.58;8.50;;;;;;;11.51;69.31;99917.50;4930123;29;20201;-87
2023/04/01 05:17:57;;;;;;;15.63;6.97;;;;;;;11.77;68.58;99937.75;4932763;28;20046;-87
2023/04/01 05:20:22;;;;;;;17.50;6.97;;;;;;;11.88;67.87;99926.53;4934045;29;20048;-86
2023/04/01 05:22:48;;;;;;;12.00;6.25;;;;;;;11.91;66.93;99912.69;4935449;29;20050;-88
2023/04/01 05:25:14;;;;;;;26.10;10.45;;;;;;;11.95;67.27;99897.81;4933856;29;20188;-85
2023/04/01 05:27:42;;;;;;;16.98;7.75;;;;;;;12.30;66.60;99922.28;4936366;29;20048;-88
2023/04/01 05:30:08;;;;;;;15.40;6.28;;;;;;;12.39;65.34;99910.34;4942860;29;20054;-87
2023/04/01 05:32:34;;;;;;;32.17;9.35;;;;;;;12.50;66.31;99905.47;4934235;29;20047;-86
2023/04/01 05:35:01;;;;;;;16.80;7.10;;;;;;;12.69;64.98;99894.06;4935357;29;20110;-87
2023/04/01 05:37:26;;;;;;;10.80;6.13;;;;;;;12.91;63.53;99896.75;4939439;29;20051;-87
2023/04/01 05:39:55;;;;;;;23.90;7.60;;;;;;;13.22;63.81;99913.38;4937144;28;20532;-88
2023/04/01 05:42:21;;;;;;;22.05;7.22;;;;;;;13.57;62.42;99907.22;4918064;29;20055;-86
2023/04/01 05:44:46;;;;;;;20.90;7.57;;;;;;;13.78;61.53;99892.78;4932740;29;20059;-86
2023/04/01 05:47:12;;;;;;;14.50;6.38;;;;;;;14.12;59.77;99876.50;4935530;29;20034;-88
2023/04/01 05:49:38;;;;;;;13.85;5.95;;;;;;;14.50;58.27;99892.19;4938692;29;20372;-86
2023/04/01 05:52:05;;;;;;;18.77;5.78;;;;;;;14.85;56.92;99870.41;4939312;28;20039;-86
2023/04/01 05:54:31;;;;;;;17.92;7.30;;;;;;;15.25;56.39;99869.53;4941667;29;20080;-89
2023/04/01 05:56:57;;;;;;;19.25;6.22;;;;;;;15.68;54.39;99861.72;4942703;29;20126;-85
2023/04/01 05:59:24;;;;;;;;;;;;;;;16.35;53.17;99886.69;4934465;29;20039;-86
2023/04/01 06:01:50;;;;;;;12.63;5.88;;;;;;;16.85;52.30;99875.09;4937118;29;19936;-86
2023/04/01 06:04:16;;;;;;;;;;;;;;;17.39;50.48;99884.41;4939634;29;20056;-86
2023/04/01 06:06:44;;;;;;;12.88;4.80;;;;;;;17.68;49.09;99882.03;4941537;29;19937;-85
2023/04/01 06:09:17;;;;;;;12.30;4.53;;;;;;;17.86;48.84;99878.50;4937712;29;20039;-87
2023/04/01 06:11:52;;;;;;;10.98;4.95;;;;;;;18.05;48.02;99873.88;4947553;29;20129;-87
2023/04/01 06:14:45;;;;;;;13.15;4.90;;;;;;;18.05;47.81;99855.69;4942501;28;20088;-92
2023/04/01 06:17:32;;;;;;;9.82;4.60;;;;;;;17.95;47.66;99862.72;4923599;29;20126;-87
2023/04/01 06:20:19;;;;;;;20.52;6.70;;;;;;;17.86;48.15;99846.72;4934497;29;20079;-90
2023/04/01 06:23:23;;;;;;;21.33;5.80;;;;;;;18.03;48.16;99873.28;4946810;29;20043;-94
2023/04/01 06:26:13;;;;;;;13.07;5.20;;;;;;;17.93;48.23;99869.22;4955066;28;20100;-94
2023/04/01 06:29:21;;;;;;;;;;;;;;;;;;;;;
2023/04/01 06:32:02;;;;;;;21.10;6.60;;;;;;;17.51;49.22;99828.28;4958952;28;20055;-93
2023/04/01 06:35:21;;;;;;;21.58;6.15;;;;;;;17.68;49.13;99863.00;4957625;28;20306;-94
2023/04/01 06:38:25;;;;;;;13.68;5.22;;;;;;;17.66;48.72;99865.13;4947575;29;20031;-94
2023/04/01 06:41:22;;;;;;;13.73;6.95;;;;;;;17.68;48.74;99857.56;4944946;29;20094;-90
2023/04/01 06:44:04;;;;;;;13.38;5.03;;;;;;;17.56;48.71;99848.50;4936193;29;20044;-93
2023/04/01 06:47:04;;;;;;;10.45;4.45;;;;;;;17.06;49.23;99822.28;4936552;29;20519;-93
2023/04/01 06:49:36;;;;;;;15.65;5.43;;;;;;;16.87;50.16;99832.25;4933647;29;20049;-91
2023/04/01 06:52:24;;;;;;;13.60;4.65;;;;;;;16.85;49.93;99834.38;4944668;28;20502;-89
2023/04/01 06:55:04;;;;;;;12.98;4.60;;;;;;;16.73;50.09;99830.69;4935840;29;20132;-92
2023/04/01 06:57:44;;;;;;;9.20;3.85;;;;;;;16.76;50.47;99830.25;4939510;29;20467;-95
2023/04/01 07:00:28;;;;;;;9.75;4.20;;;;;;;16.95;50.23;99826.56;4940895;29;20051;-94
2023/04/01 07:03:05;;;;;;;13.02;4.32;;;;;;;16.97;50.24;99859.72;4932905;28;20376;-92
2023/04/01 07:05:44;;;;;;;9.45;4.50;;;;;;;16.79;50.65;99841.53;4943016;29;20122;-92
2023/04/01 07:08:14;;;;;;;8.35;4.30;;;;;;;16.74;51.15;99840.47;4934369;29;20329;-91
2023/04/01 07:11:22;;;;;;;12.48;4.68;;;;;;;16.99;51.08;99851.38;4914784;29;20091;-90
2023/04/01 07:14:33;;;;;;;12.23;4.85;;;;;;;17.26;50.86;99863.66;4884388;29;20045;-92
2023/04/01 07:17:24;;;;;;;19.52;5.13;;;;;;;17.05;50.58;99824.16;4891320;29;20053;-93
2023/04/01 07:20:21;;;;;;;20.50;6.13;;;;;;;17.18;50.72;99835.94;4890111;29;20144;-91
2023/04/01 07:23:41;;;;;;;10.00;4.20;;;;;;;17.28;50.37;99828.13;4885335;29;20084;-93
2023/04/01 07:26:35;;;;;;;15.52;4.70;;;;;;;16.97;50.83;99816.28;4908781;29;20093;-91
2023/04/01 07:29:15;;;;;;;12.83;5.20;;;;;;;16.62;51.47;99824.09;4887870;29;20109;-93
2023/04/01 07:32:17;;;;;;;11.82;4.22;;;;;;;16.19;52.14;99798.53;4886678;29;20292;-87
2023/04/01 07:35:20;;;;;;;11.13;3.90;;;;;;;16.21;53.46;99839.81;4900014;29;20067;-90
2023/04/01 07:37:52;;;;;;;8.18;3.88;;;;;;;16.08;53.90;99837.16;4940826;29;20059;-91
2023/04/01 07:41:02;;;;;;;7.60;3.55;;;;;;;15.93;53.72;99831.22;4952948;29;20043;-88
2023/04/01 07:44:24;;;;;;;12.73;4.55;;;;;;;16.20;54.04;99838.16;4941687;29;20055;-93
2023/04/01 07:47:21;;;;;;;8.27;4.22;;;;;;;15.94;53.92;99809.28;4889886;29;20048;-90
2023/04/01 07:50:12;;;;;;;8.80;4.15;;;;;;;16.17;54.05;99819.59;4956887;29;20406;-91
2023/04/01 07:53:20;;;;;;;10.50;4.25;;;;;;;16.04;54.40;99806.13;4943503;29;20488;-92
2023/04/01 07:56:05;;;;;;;11.45;4.22;;;;;;;15.98;54.40;99790.72;4920390;29;20074;-86
2023/04/01 07:58:44;;;;;;;10.88;4.63;;;;;;;16.25;55.32;99808.50;4934598;29;20047;-90
2023/04/01 08:01:31;;;;;;;9.57;4.05;;;;;;;16.32;53.93;99805.75;4946851;29;20127;-87
2023/04/01 08:04:24;;;;;;;14.65;4.75;;;;;;;16.63;53.78;99801.34;4943540;29;20117;-92
2023/04/01 08:07:14;;;;;;;9.98;4.00;;;;;;;17.22;52.55;99791.00;4939194;29;20078;-92
2023/04/01 08:10:19;;;;;;;9.30;3.88;;;;;;;18.00;49.98;99797.56;4945157;29;20167;-89
2023/04/01 08:13:33;;;;;;;16.13;5.13;;;;;;;18.64;49.01;99787.81;4955462;29;20138;-91
2023/04/01 08:16:14;;;;;;;12.25;4.55;;;;;;;18.94;47.92;99776.84;4952582;29;20046;-90
2023/04/01 08:19:17;;;;;;;10.05;4.60;;;;;;;19.02;47.47;99781.09;4943874;29;20453;-91
2023/04/01 08:22:04;;;;;;;14.20;5.07;;;;;;;18.88;47.57;99777.78;4947087;29;20113;-93
2023/04/01 08:24:38;;;;;;;11.48;4.53;;;;;;;18.92;47.57;99776.25;4947449;28;20134;-89
2023/04/01 08:27:38;;;;;;;;;;;;;;;;;;;;;
2023/04/01 08:30:47;;;;;;;;;;;;;;;;;;;;;
2023/04/01 08:37:17;;;;;;;;;;;;;;;;;;;;;
2023/04/01 08:40:23;;;;;;;;;;;;;;;;;;;;;
2023/04/01 08:43:29;;;;;;;15.23;5.07;;;;;;;18.96;47.95;99762.97;4932822;29;20040;-91
2023/04/01 08:49:55;;;;;;;13.52;5.05;;;;;;;20.43;45.16;99758.78;4942236;29;20040;-93
2023/04/01 08:52:49;;;;;;;;;;;;;;;;;;;;;
2023/04/01 08:55:43;;;;;;;;;;;;;;;;;;;;;
2023/04/01 08:58:33;;;;;;;9.80;3.85;;;;;;;20.04;45.19;99746.91;4937005;29;20139;-91
2023/04/01 09:01:44;;;;;;;9.98;4.03;;;;;;;20.44;44.60;99757.72;4924867;29;20114;-93
2023/04/01 09:04:42;;;;;;;9.00;4.10;;;;;;;21.17;42.66;99716.75;4936436;29;20058;-86
2023/04/01 09:07:54;;;;;;;;;;;;;;;;;;;;;
2023/04/01 09:10:45;;;;;;;10.13;4.07;;;;;;;21.13;42.89;99740.19;4913572;29;20107;-90
2023/04/01 09:13:29;;;;;;;16.60;4.50;;;;;;;20.72;43.42;99711.47;4928987;29;20035;-88
2023/04/01 09:16:39;;;;;;;12.90;4.55;;;;;;;20.84;43.91;99734.06;4948166;29;20095;-91
2023/04/01 09:20:05;;;;;;;9.35;4.22;;;;;;;20.39;43.94;99694.88;4957992;28;20496;-90
2023/04/01 09:22:52;;;;;;;11.00;4.60;;;;;;;20.26;44.84;99714.28;4933872;29;20436;-87
2023/04/01 09:25:49;;;;;;;12.45;4.35;;;;;;;20.06;45.51;99714.75;4945373;29;20075;-87
2023/04/01 09:31:45;;;;;;;11.82;4.47;;;;;;;19.65;46.31;99688.66;4932826;29;20053;-88
2023/04/01 09:34:43;;;;;;;12.52;4.47;;;;;;;19.82;46.25;99714.88;4934698;29;20134;-89
2023/04/01 09:37:27;;;;;;;17.25;5.25;;;;;;;19.78;46.88;99705.56;4922665;29;20548;-88
2023/04/01 09:39:55;;;;;;;11.90;4.85;;;;;;;19.61;47.20;99707.38;4942542;29;20532;-90
2023/04/01 09:42:52;;;;;;;11.32;4.75;;;;;;;19.32;48.28;99701.91;4938874;29;20054;-88
2023/04/01 09:45:28;;;;;;;12.85;4.80;;;;;;;19.10;48.83;99699.00;4936072;29;20100;-89
2023/04/01 09:48:12;;;;;;;12.93;4.75;;;;;;;18.99;49.18;99688.97;4933739;29;20036;-87
2023/04/01 09:50:41;;;;;;;12.23;4.70;;;;;;;18.77;49.77;99683.31;4941739;29;20040;-87
2023/04/01 09:53:26;;;;;;;12.45;5.10;;;;;;;18.77;50.09;99681.41;4956023;28;20042;-88
2023/04/01 09:56:06;;;;;;;;;;;;;;;18.26;51.40;99672.06;4938905;29;20040;-87
2023/04/01 09:58:38;;;;;;;14.00;4.82;;;;;;;18.07;52.50;99670.47;4942915;29;19918;-87
2023/04/01 10:01:45;;;;;;;10.15;4.47;;;;;;;18.51;51.48;99662.81;4938217;29;20138;-87
2023/04/01 10:04:22;;;;;;;19.77;5.22;;;;;;;18.84;50.90;99651.34;4878050;29;20117;-87
2023/04/01 10:07:26;;;;;;;9.30;4.38;;;;;;;18.62;51.02;99647.56;4933846;29;20058;-87
2023/04/01 10:10:27;;;;;;;15.70;5.00;;;;;;;18.79;51.30;99634.06;4898893;29;20513;-87
2023/04/01 10:13:30;;;;;;;17.95;5.07;;;;;;;18.80;50.97;99628.41;4889804;29;20069;-86
2023/04/01 10:16:30;;;;;;;12.77;4.75;;;;;;;18.69;50.94;99630.03;4934644;29;20061;-86
2023/04/01 10:19:45;;;;;;;11.25;4.65;;;;;;;18.39;51.70;99619.28;4947492;29;20142;-87
2023/04/01 10:22:18;;;;;;;14.13;4.70;;;;;;;17.83;53.62;99617.97;4913626;29;20044;-87
2023/04/01 10:25:18;;;;;;;12.00;4.72;;;;;;;17.83;53.88;99629.66;4916485;29;20551;-87
2023/04/01 10:28:02;;;;;;;12.73;4.78;;;;;;;17.66;54.30;99629.47;4925598;29;20044;-87
2023/04/01 10:31:04;;;;;;;13.23;5.00;;;;;;;18.01;53.54;99631.47;4949538;29;20040;-86
2023/04/01 10:33:50;;;;;;;15.82;5.22;;;;;;;18.24;53.06;99619.78;4932604;29;20047;-86
2023/04/01 10:36:44;;;;;;;12.15;4.72;;;;;;;18.37;52.45;99623.31;4933835;29;20114;-88
2023/04/01 10:39:22;;;;;;;11.90;4.60;;;;;;;18.29;52.46;99617.16;4933295;29;20218;-86
2023/04/01 10:42:25;;;;;;;14.30;5.55;;;;;;;18.39;52.59;99615.75;4941934;29;20051;-87
2023/04/01 10:45:04;;;;;;;19.05;6.32;;;;;;;18.70;52.23;99612.63;4939076;29;20090;-86
2023/04/01 10:47:41;;;;;;;11.98;5.28;;;;;;;18.65;51.77;99601.63;4936271;29;20412;-86
2023/04/01 10:50:33;;;;;;;14.85;5.75;;;;;;;18.95;51.51;99615.06;4939389;29;20039;-87
2023/04/01 10:53:19;;;;;;;17.65;5.60;;;;;;;19.23;50.86;99615.34;4925471;29;21261;-86
2023/04/01 10:56:13;;;;;;;16.42;5.38;;;;;;;19.44;50.21;99595.59;4961372;29;20108;-85
2023/04/01 10:59:00;;;;;;;20.90;5.60;;;;;;;20.11;48.29;99594.81;4952988;29;20114;-85
2023/04/01 11:01:35;;;;;;;13.93;5.28;;;;;;;20.05;47.96;99593.09;4950035;29;20076;-86
2023/04/01 11:04:25;;;;;;;12.52;5.50;;;;;;;19.71;49.21;99594.97;4940556;29;20052;-86
2023/04/01 11:07:09;;;;;;;12.07;5.13;;;;;;;18.92;50.94;99585.63;4942137;29;20054;-86
2023/04/01 11:10:08;;;;;;;13.13;5.18;;;;;;;18.11;52.93;99584.66;4946599;29;20039;-86
2023/04/01 11:13:04;;;;;;;14.35;5.63;;;;;;;18.40;52.98;99579.28;4923657;29;20521;-85
2023/04/01 11:16:07;;;;;;;16.13;6.10;;;;;;;18.13;53.53;99563.47;4947678;29;20039;-85
2023/04/01 11:18:41;;;;;;;15.55;5.47;;;;;;;18.66;52.34;99558.88;4937816;29;20100;-84
2023/04/01 11:21:28;;;;;;;14.55;5.43;;;;;;;19.37;50.61;99564.94;4942897;29;20048;-86
2023/04/01 11:24:19;;;;;;;14.43;5.07;;;;;;;19.31;50.01;99549.56;4952853;29;20046;-86
2023/04/01 11:27:10;;;;;;;12.70;4.78;;;;;;;18.79;51.16;99552.38;4969057;28;20090;-86
2023/04/01 11:29:51;;;;;;;15.20;5.18;;;;;;;18.80;51.63;99564.91;4958664;29;20075;-87
2023/04/01 11:32:22;;;;;;;10.85;5.40;;;;;;;18.76;51.40;99561.84;4943532;28;20067;-87
2023/04/01 11:35:32;;;;;;;15.75;5.40;;;;;;;18.30;52.48;99550.78;4944387;29;20106;-88
2023/04/01 11:38:09;;;;;;;15.68;5.25;;;;;;;18.54;52.61;99551.59;4931052;29;20111;-90
2023/04/01 11:40:41;;;;;;;11.80;5.45;;;;;;;18.63;51.92;99552.03;4946448;29;20588;-88
2023/04/01 11:43:19;;;;;;;11.20;4.97;;;;;;;19.02;51.31;99549.56;4941600;29;20031;-88
2023/04/01 11:46:45;;;;;;;15.07;6.50;;;;;;;19.11;50.87;99531.78;4946180;29;20049;-88
2023/04/01 11:49:40;;;;;;;21.80;8.00;;;;;;;19.85;49.87;99547.19;4958690;28;20036;-89
2023/04/01 11:52:18;;;;;;;17.02;5.53;;;;;;;20.59;47.30;99540.63;4958781;28;20051;-89
2023/04/01 11:55:22;;;;;;;10.65;4.72;;;;;;;21.10;45.83;99535.75;4959524;28;20410;-91
2023/04/01 11:58:23;;;;;;;10.23;4.63;;;;;;;20.74;46.20;99535.34;4908383;29;20170;-90
2023/04/01 12:01:13;;;;;;;13.23;4.60;;;;;;;21.02;46.08;99528.00;4939391;29;20056;-88
2023/04/01 12:04:07;;;;;;;12.48;5.55;;;;;;;21.32;45.22;99527.50;4936813;29;20055;-91
2023/04/01 12:07:14;;;;;;;13.07;5.22;;;;;;;21.23;45.61;99518.94;4950893;29;20109;-91
2023/04/01 12:09:58;;;;;;;16.60;5.03;;;;;;;21.12;45.60;99517.19;4903539;29;20051;-89
2023/04/01 12:12:29;;;;;;;18.92;5.22;;;;;;;20.97;46.40;99519.75;4862920;29;20116;-88
2023/04/01 12:15:40;;;;;;;15.52;4.72;;;;;;;20.80;46.30;99520.69;4902340;29;20044;-87
2023/04/01 12:18:42;;;;;;;13.35;4.03;;;;;;;20.48;46.71;99506.88;4919272;28;20064;-90
2023/04/01 12:21:38;;;;;;;14.13;4.30;;;;;;;20.20;47.77;99505.16;4946482;29;20095;-88
2023/04/01 12:24:35;;;;;;;16.83;5.03;;;;;;;19.96;48.70;99493.66;4931169;29;20043;-88
2023/04/01 12:27:26;;;;;;;13.20;4.75;;;;;;;20.01;48.78;99491.81;4950873;29;20132;-91
2023/04/01 12:30:07;;;;;;;13.57;4.55;;;;;;;19.68;49.47;99486.38;4949353;29;20382;-90
2023/04/01 12:33:30;;;;;;;14.18;4.78;;;;;;;19.52;50.42;99504.38;4953212;29;20455;-92
2023/04/01 12:36:37;;;;;;;19.00;5.03;;;;;;;19.64;49.99;99501.56;4898695;29;20226;-88
2023/04/01 12:39:31;;;;;;;13.50;5.32;;;;;;;19.53;50.42;99506.06;4894560;29;20521;-88
2023/04/01 12:42:10;;;;;;;14.27;5.50;;;;;;;18.92;51.94;99505.81;4946619;29;20047;-89
2023/04/01 12:44:57;;;;;;;19.15;5.30;;;;;;;18.76;52.38;99504.66;4961404;29;20114;-87
2023/04/01 12:47:25;;;;;;;11.90;6.10;;;;;;;18.16;54.02;99508.59;4943484;29;20079;-89
2023/04/01 12:50:10;;;;;;;15.65;5.80;;;;;;;18.23;53.64;99495.69;4941993;29;20047;-88
2023/04/01 12:53:05;;;;;;;17.25;5.90;;;;;;;17.67;55.48;99506.09;4940005;29;20047;-91